createdAt,value
2018-12-12T00:00:26.352Z,70.72
2018-12-12T00:02:54.789Z,70.63
2018-12-12T00:05:38.627Z,71.44
2018-12-12T00:08:06.973Z,71.47
2018-12-12T00:10:35.475Z,71.95
2018-12-12T00:13:03.847Z,71.29
2018-12-12T00:15:32.502Z,72.11
2018-12-12T00:18:01.222Z,72.00
2018-12-12T00:20:29.518Z,72.37
2018-12-12T00:22:57.908Z,72.66
2018-12-12T00:25:26.425Z,72.46
2018-12-12T00:27:54.730Z,72.12
2018-12-12T00:30:23.348Z,72.41
2018-12-12T00:32:51.692Z,72.44
2018-12-12T00:35:20.061Z,72.24
2018-12-12T00:37:48.490Z,71.61
2018-12-12T00:40:16.819Z,72.08
2018-12-12T00:42:45.190Z,72.00
2018-12-12T00:45:13.622Z,72.40
2018-12-12T00:47:41.978Z,71.93
2018-12-12T00:50:10.301Z,72.34
2018-12-12T00:52:38.661Z,71.75
2018-12-12T00:55:07.077Z,71.67
2018-12-12T00:57:35.823Z,71.78
2018-12-12T01:00:05.830Z,72.44
2018-12-12T01:02:34.182Z,71.75
2018-12-12T01:05:02.502Z,72.35
2018-12-12T01:07:30.902Z,72.44
2018-12-12T01:09:59.246Z,72.00
2018-12-12T01:12:27.557Z,72.70
2018-12-12T01:14:55.870Z,72.19
2018-12-12T01:17:24.235Z,71.06
2018-12-12T01:19:52.562Z,71.97
2018-12-12T01:22:20.971Z,70.69
2018-12-12T01:24:49.311Z,71.52
2018-12-12T01:27:17.690Z,71.14
2018-12-12T01:29:46.011Z,71.40
2018-12-12T01:32:14.345Z,71.45
2018-12-12T01:34:42.711Z,71.28
2018-12-12T01:37:11.191Z,71.66
2018-12-12T01:39:39.538Z,71.00
2018-12-12T01:42:07.856Z,72.03
2018-12-12T01:44:36.356Z,72.28
2018-12-12T01:47:04.698Z,72.31
2018-12-12T01:49:33.050Z,72.16
2018-12-12T01:52:01.407Z,72.88
2018-12-12T01:54:29.718Z,72.91
2018-12-12T01:56:58.040Z,72.61
2018-12-12T01:59:26.551Z,72.64
2018-12-12T02:01:54.924Z,73.66
2018-12-12T02:04:23.266Z,73.50
2018-12-12T02:06:51.728Z,72.95
2018-12-12T02:09:20.084Z,73.62
2018-12-12T02:11:48.402Z,73.90
2018-12-12T02:14:16.725Z,73.46
2018-12-12T02:16:45.091Z,73.18
2018-12-12T02:19:13.518Z,74.26
2018-12-12T02:21:41.969Z,72.87
2018-12-12T02:24:10.408Z,73.47
2018-12-12T02:26:38.730Z,73.15
2018-12-12T02:29:07.287Z,72.94
2018-12-12T02:31:35.675Z,73.77
2018-12-12T02:34:04.100Z,74.15
2018-12-12T02:36:32.501Z,73.98
2018-12-12T02:39:00.952Z,74.03
2018-12-12T02:41:29.438Z,73.18
2018-12-12T02:43:57.823Z,73.51
2018-12-12T02:46:26.425Z,74.28
2018-12-12T02:48:54.833Z,74.77
2018-12-12T02:51:23.645Z,74.20
2018-12-12T02:53:51.980Z,75.26
2018-12-12T02:56:20.286Z,75.31
2018-12-12T02:58:48.617Z,74.69
2018-12-12T03:01:17.008Z,74.02
2018-12-12T03:03:45.426Z,74.16
2018-12-12T03:06:13.756Z,73.92
2018-12-12T03:08:42.059Z,73.71
2018-12-12T03:11:10.349Z,73.46
2018-12-12T03:13:38.900Z,73.69
2018-12-12T03:16:07.273Z,73.55
2018-12-12T03:18:35.594Z,73.63
2018-12-12T03:21:03.929Z,73.65
2018-12-12T03:23:32.386Z,73.59
2018-12-12T03:26:00.686Z,74.15
2018-12-12T03:28:29.012Z,73.70
2018-12-12T03:30:57.322Z,73.90
2018-12-12T03:33:25.667Z,73.41
2018-12-12T03:35:54.268Z,73.86
2018-12-12T03:38:22.607Z,73.33
2018-12-12T03:40:51.021Z,73.59
2018-12-12T03:43:19.347Z,73.62
2018-12-12T03:45:47.725Z,72.86
2018-12-12T03:48:16.108Z,72.65
2018-12-12T03:50:44.546Z,72.90
2018-12-12T03:53:12.983Z,73.51
2018-12-12T03:55:41.380Z,73.20
2018-12-12T03:58:09.993Z,72.81
2018-12-12T04:00:38.470Z,72.95
2018-12-12T04:03:06.811Z,72.81
2018-12-12T04:05:35.239Z,72.70
2018-12-12T04:08:03.519Z,72.43
2018-12-12T04:10:31.970Z,72.19
2018-12-12T04:13:00.330Z,72.25
2018-12-12T04:15:28.677Z,71.67
2018-12-12T04:17:57.105Z,71.69
2018-12-12T04:20:25.514Z,72.09
2018-12-12T04:22:53.841Z,72.87
2018-12-12T04:25:22.148Z,73.38
2018-12-12T04:27:50.519Z,72.82
2018-12-12T04:30:18.809Z,72.25
2018-12-12T04:32:47.122Z,72.12
2018-12-12T04:35:15.467Z,72.52
2018-12-12T04:37:43.906Z,72.71
2018-12-12T04:40:12.225Z,71.55
2018-12-12T04:42:40.778Z,71.72
2018-12-12T04:45:09.174Z,71.41
2018-12-12T04:47:37.456Z,71.28
2018-12-12T04:50:05.880Z,71.33
2018-12-12T04:52:34.183Z,71.39
2018-12-12T04:55:04.504Z,71.11
2018-12-12T04:57:32.941Z,73.05
2018-12-12T05:00:01.261Z,73.43
2018-12-12T05:02:29.559Z,71.54
2018-12-12T05:04:57.962Z,71.59
2018-12-12T05:07:26.329Z,71.46
2018-12-12T05:09:54.674Z,71.19
2018-12-12T05:12:22.995Z,70.81
2018-12-12T05:14:51.329Z,71.76
2018-12-12T05:17:19.733Z,72.33
2018-12-12T05:19:48.062Z,73.95
2018-12-12T05:22:16.377Z,72.58
2018-12-12T05:24:44.663Z,72.47
2018-12-12T05:27:13.455Z,72.96
2018-12-12T05:29:41.774Z,73.89
2018-12-12T05:32:10.098Z,75.01
2018-12-12T05:34:38.425Z,73.32
2018-12-12T05:37:06.790Z,73.08
2018-12-12T05:39:35.136Z,72.31
2018-12-12T05:42:03.438Z,72.67
2018-12-12T05:44:31.730Z,71.82
2018-12-12T05:47:00.044Z,71.66
2018-12-12T05:49:28.569Z,71.61
2018-12-12T05:51:56.932Z,71.26
2018-12-12T05:54:25.280Z,71.34
2018-12-12T05:56:53.585Z,71.54
2018-12-12T05:59:22.180Z,72.36
2018-12-12T06:01:50.530Z,72.00
2018-12-12T06:04:18.865Z,71.51
2018-12-12T06:06:47.162Z,73.12
2018-12-12T06:09:15.461Z,72.29
2018-12-12T06:11:43.955Z,71.45
2018-12-12T06:14:12.248Z,70.55
2018-12-12T06:16:40.564Z,71.12
2018-12-12T06:19:09.003Z,70.69
2018-12-12T06:21:37.370Z,70.36
2018-12-12T06:24:05.702Z,70.22
2018-12-12T06:26:37.286Z,70.54
2018-12-12T06:29:04.461Z,71.08
2018-12-12T06:31:32.821Z,70.53
2018-12-12T06:34:01.243Z,71.08
2018-12-12T06:36:29.581Z,71.14
2018-12-12T06:38:58.777Z,72.04
2018-12-12T06:41:27.078Z,70.58
2018-12-12T06:43:55.397Z,69.98
2018-12-12T06:46:23.734Z,70.75
2018-12-12T06:48:52.081Z,70.64
2018-12-12T06:51:20.371Z,70.82
2018-12-12T06:53:48.700Z,70.42
2018-12-12T06:56:17.337Z,69.90
2018-12-12T06:58:45.670Z,70.21
2018-12-12T07:01:13.950Z,69.70
2018-12-12T07:03:42.293Z,69.85
2018-12-12T07:06:10.579Z,70.03
2018-12-12T07:08:38.905Z,69.25
2018-12-12T07:11:07.265Z,69.66
2018-12-12T07:13:35.908Z,68.85
2018-12-12T07:16:04.698Z,68.99
2018-12-12T07:18:33.167Z,68.16
2018-12-12T07:21:01.512Z,68.13
2018-12-12T07:23:29.818Z,68.09
2018-12-12T07:25:58.169Z,69.09
2018-12-12T07:28:26.472Z,68.33
2018-12-12T07:30:54.834Z,68.11
2018-12-12T07:33:23.204Z,68.73
2018-12-12T07:35:51.521Z,68.60
2018-12-12T07:38:19.863Z,69.47
2018-12-12T07:40:48.281Z,68.69
2018-12-12T07:43:16.585Z,68.41
2018-12-12T07:45:44.929Z,68.79
2018-12-12T07:48:13.282Z,68.37
2018-12-12T07:50:41.717Z,67.43
2018-12-12T07:53:10.023Z,68.42
2018-12-12T07:55:38.341Z,68.56
2018-12-12T07:58:06.711Z,68.81
2018-12-12T08:00:35.068Z,68.65
2018-12-12T08:03:06.339Z,68.38
2018-12-12T08:05:33.910Z,68.34
2018-12-12T08:08:02.242Z,68.16
2018-12-12T08:10:30.640Z,68.46
2018-12-12T08:12:58.944Z,67.88
2018-12-12T08:15:27.296Z,68.44
2018-12-12T08:17:55.629Z,68.85
2018-12-12T08:20:24.385Z,68.44
2018-12-12T08:22:53.554Z,68.08
2018-12-12T08:25:22.497Z,68.28
2018-12-12T08:27:50.835Z,67.19
2018-12-12T08:30:19.192Z,68.05
2018-12-12T08:32:47.546Z,68.34
2018-12-12T08:35:15.919Z,68.32
2018-12-12T08:37:44.227Z,68.61
2018-12-12T08:40:12.606Z,69.05
2018-12-12T08:42:40.997Z,68.34
2018-12-12T08:45:09.361Z,69.14
2018-12-12T08:47:37.741Z,69.52
2018-12-12T08:50:07.966Z,69.60
2018-12-12T08:52:36.315Z,70.32
2018-12-12T08:55:05.250Z,69.88
2018-12-12T08:57:33.540Z,69.74
2018-12-12T09:00:01.851Z,70.87
2018-12-12T09:02:30.160Z,70.55
2018-12-12T09:04:58.471Z,70.59
2018-12-12T09:07:26.796Z,70.62
2018-12-12T09:09:55.244Z,70.94
2018-12-12T09:12:23.554Z,70.39
2018-12-12T09:14:51.862Z,70.27
2018-12-12T09:17:20.201Z,70.25
2018-12-12T09:19:48.485Z,69.76
2018-12-12T09:22:16.790Z,70.25
2018-12-12T09:24:45.131Z,70.62
2018-12-12T09:27:13.443Z,70.66
2018-12-12T09:29:41.709Z,70.54
2018-12-12T09:32:10.400Z,70.22
2018-12-12T09:34:38.674Z,68.99
2018-12-12T09:37:07.033Z,69.03
2018-12-12T09:39:35.335Z,68.43
2018-12-12T09:42:03.760Z,68.15
2018-12-12T09:44:32.236Z,68.20
2018-12-12T09:47:00.582Z,68.56
2018-12-12T09:49:28.902Z,68.64
2018-12-12T09:51:57.228Z,68.03
2018-12-12T09:54:26.064Z,69.50
2018-12-12T09:56:54.376Z,69.39
2018-12-12T09:59:22.678Z,69.67
2018-12-12T10:01:51.023Z,70.46
2018-12-12T10:04:19.337Z,70.28
2018-12-12T10:06:47.705Z,70.31
2018-12-12T10:09:16.055Z,70.96
2018-12-12T10:11:44.347Z,69.71
2018-12-12T10:14:12.635Z,70.09
2018-12-12T10:16:41.112Z,70.11
2018-12-12T10:19:09.389Z,70.19
2018-12-12T10:21:37.683Z,69.52
2018-12-12T10:24:06.041Z,69.77
2018-12-12T10:26:34.355Z,70.25
2018-12-12T10:29:02.780Z,69.85
2018-12-12T10:31:31.178Z,70.34
2018-12-12T10:33:59.455Z,69.65
2018-12-12T10:36:27.727Z,69.47
2018-12-12T10:38:56.126Z,68.77
2018-12-12T10:41:24.466Z,69.06
2018-12-12T10:43:52.770Z,69.32
2018-12-12T10:46:21.075Z,69.17
2018-12-12T10:48:49.379Z,69.44
2018-12-12T10:51:17.669Z,69.02
2018-12-12T10:53:45.984Z,69.33
2018-12-12T10:56:14.354Z,69.29
2018-12-12T10:58:42.701Z,70.38
2018-12-12T11:01:16.740Z,70.92
2018-12-12T11:03:45.064Z,71.10
2018-12-12T11:06:13.380Z,70.55
2018-12-12T11:08:41.778Z,70.34
2018-12-12T11:11:10.198Z,70.00
2018-12-12T11:13:38.595Z,70.18
2018-12-12T11:16:07.086Z,68.91
2018-12-12T11:18:35.396Z,67.99
2018-12-12T11:21:03.730Z,65.58
2018-12-12T11:23:32.489Z,63.59
2018-12-12T11:26:00.806Z,61.23
2018-12-12T11:28:29.181Z,59.76
2018-12-12T11:30:57.526Z,58.07
2018-12-12T11:33:25.833Z,57.79
2018-12-12T11:35:54.204Z,57.95
2018-12-12T11:38:22.592Z,59.28
2018-12-12T11:40:50.932Z,60.53
2018-12-12T11:43:19.859Z,60.56
2018-12-12T11:45:48.286Z,62.86
2018-12-12T11:48:16.607Z,63.80
2018-12-12T11:50:44.920Z,64.32
2018-12-12T11:53:13.327Z,64.85
2018-12-12T11:55:41.649Z,64.91
2018-12-12T11:58:09.965Z,65.02
2018-12-12T12:00:38.299Z,64.45
2018-12-12T12:03:06.601Z,65.24
2018-12-12T12:05:34.928Z,65.97
2018-12-12T12:08:03.686Z,66.30
2018-12-12T12:10:31.992Z,66.92
2018-12-12T12:13:00.313Z,66.93
2018-12-12T12:15:28.636Z,68.11
2018-12-12T12:17:56.982Z,68.38
2018-12-12T12:20:25.288Z,68.72
2018-12-12T12:22:53.613Z,67.68
2018-12-12T12:25:21.952Z,67.96
2018-12-12T12:27:50.254Z,67.55
2018-12-12T12:30:18.949Z,68.00
2018-12-12T12:32:47.270Z,68.47
2018-12-12T12:35:15.612Z,68.70
2018-12-12T12:37:43.918Z,69.05
2018-12-12T12:40:12.295Z,68.43
2018-12-12T12:42:40.625Z,68.54
2018-12-12T12:45:08.999Z,68.25
2018-12-12T12:47:37.382Z,68.17
2018-12-12T12:50:07.079Z,69.59
2018-12-12T12:52:35.734Z,70.11
2018-12-12T12:55:04.484Z,69.31
2018-12-12T12:57:33.715Z,68.48
2018-12-12T13:00:02.094Z,68.43
2018-12-12T13:02:30.393Z,68.18
2018-12-12T13:04:58.685Z,68.62
2018-12-12T13:07:26.997Z,68.63
2018-12-12T13:09:55.342Z,68.50
2018-12-12T13:12:23.652Z,68.33
2018-12-12T13:14:52.182Z,68.10
2018-12-12T13:17:20.480Z,67.84
2018-12-12T13:19:48.794Z,67.69
2018-12-12T13:22:17.102Z,68.44
2018-12-12T13:24:45.443Z,67.76
2018-12-12T13:27:13.757Z,67.93
2018-12-12T13:29:42.098Z,68.04
2018-12-12T13:32:10.422Z,68.98
2018-12-12T13:34:38.739Z,69.08
2018-12-12T13:37:07.169Z,69.47
2018-12-12T13:39:35.497Z,69.28
2018-12-12T13:42:03.865Z,69.26
2018-12-12T13:44:32.204Z,69.62
2018-12-12T13:47:00.574Z,69.10
2018-12-12T13:49:29.194Z,69.25
2018-12-12T13:51:57.572Z,68.29
2018-12-12T13:54:26.192Z,68.04
2018-12-12T13:56:54.529Z,67.82
2018-12-12T13:59:22.914Z,67.27
2018-12-12T14:01:51.194Z,65.84
2018-12-12T14:04:22.662Z,63.74
2018-12-12T14:06:50.023Z,64.18
2018-12-12T14:09:18.308Z,64.32
2018-12-12T14:11:46.618Z,63.40
2018-12-12T14:14:14.971Z,63.46
2018-12-12T14:16:43.293Z,62.58
2018-12-12T14:19:11.620Z,61.08
2018-12-12T14:21:40.120Z,61.39
2018-12-12T14:24:08.406Z,61.22
2018-12-12T14:26:36.857Z,60.83
2018-12-12T14:29:05.264Z,60.28
2018-12-12T14:31:33.576Z,60.35
2018-12-12T14:34:02.029Z,61.12
2018-12-12T14:36:30.406Z,59.97
2018-12-12T14:38:58.830Z,60.38
2018-12-12T14:41:27.109Z,61.06
2018-12-12T14:43:55.925Z,60.74
2018-12-12T14:46:24.589Z,61.66
2018-12-12T14:48:53.547Z,62.49
2018-12-12T14:51:22.387Z,62.14
2018-12-12T14:53:50.713Z,61.71
2018-12-12T14:56:19.058Z,62.38
2018-12-12T14:58:47.447Z,62.33
2018-12-12T15:01:15.753Z,62.94
2018-12-12T15:03:44.036Z,63.64
2018-12-12T15:06:12.642Z,64.49
2018-12-12T15:08:40.989Z,64.03
2018-12-12T15:11:09.299Z,64.98
2018-12-12T15:13:37.637Z,66.04
2018-12-12T15:16:05.923Z,65.72
2018-12-12T15:18:34.272Z,66.59
2018-12-12T15:21:02.600Z,66.60
2018-12-12T15:23:30.976Z,67.16
2018-12-12T15:25:59.298Z,66.50
2018-12-12T15:28:27.964Z,66.07
2018-12-12T15:30:56.314Z,66.23
2018-12-12T15:33:24.644Z,66.07
2018-12-12T15:35:53.037Z,67.03
2018-12-12T15:38:21.340Z,66.47
2018-12-12T15:40:49.660Z,66.12
2018-12-12T15:43:18.068Z,66.16
2018-12-12T15:45:46.432Z,65.57
2018-12-12T15:48:14.768Z,65.50
2018-12-12T15:50:43.354Z,64.54
2018-12-12T15:53:11.746Z,66.20
2018-12-12T15:55:40.153Z,65.95
2018-12-12T15:58:08.552Z,65.75
2018-12-12T16:00:36.917Z,65.87
2018-12-12T16:03:05.326Z,65.58
2018-12-12T16:05:33.703Z,65.25
2018-12-12T16:08:02.062Z,66.05
2018-12-12T16:10:30.438Z,65.74
2018-12-12T16:12:58.887Z,66.28
2018-12-12T16:15:27.295Z,65.87
2018-12-12T16:17:55.682Z,65.40
2018-12-12T16:20:30.412Z,65.83
2018-12-12T16:23:05.338Z,66.02
2018-12-12T16:25:40.102Z,67.18
2018-12-12T16:28:15.283Z,67.12
2018-12-12T16:30:44.203Z,66.23
2018-12-12T16:33:12.564Z,66.50
2018-12-12T16:35:40.893Z,67.10
2018-12-12T16:38:09.296Z,67.17
2018-12-12T16:40:37.680Z,66.71
2018-12-12T16:43:06.026Z,66.64
2018-12-12T16:45:34.395Z,67.21
2018-12-12T16:48:02.711Z,67.70
2018-12-12T16:50:31.150Z,67.34
2018-12-12T16:52:59.620Z,67.96
2018-12-12T16:55:27.978Z,67.93
2018-12-12T16:57:56.371Z,68.44
2018-12-12T17:00:24.788Z,68.18
2018-12-12T17:02:53.124Z,68.44
2018-12-12T17:05:26.050Z,68.96
2018-12-12T17:07:54.419Z,68.85
2018-12-12T17:10:22.765Z,68.19
2018-12-12T17:12:51.108Z,68.39
2018-12-12T17:15:19.618Z,68.35
2018-12-12T17:17:48.031Z,68.29
2018-12-12T17:20:16.347Z,68.57
2018-12-12T17:22:44.691Z,68.10
2018-12-12T17:25:13.030Z,68.10
2018-12-12T17:27:41.416Z,68.53
2018-12-12T17:30:10.308Z,68.80
2018-12-12T17:32:38.740Z,69.38
2018-12-12T17:35:08.981Z,69.64
2018-12-12T17:37:37.756Z,70.09
2018-12-12T17:40:06.152Z,70.88
2018-12-12T17:42:34.483Z,71.67
2018-12-12T17:45:02.834Z,71.46
2018-12-12T17:47:31.166Z,71.09
2018-12-12T17:49:59.497Z,72.18
2018-12-12T17:52:27.850Z,71.95
2018-12-12T17:54:56.172Z,71.53
2018-12-12T17:57:24.515Z,72.22
2018-12-12T17:59:53.331Z,71.78
2018-12-12T18:02:21.706Z,72.07
2018-12-12T18:04:50.069Z,72.85
2018-12-12T18:07:18.443Z,71.77
2018-12-12T18:09:46.815Z,71.50
2018-12-12T18:12:15.194Z,72.32
2018-12-12T18:14:43.587Z,72.95
2018-12-12T18:17:12.074Z,73.22
2018-12-12T18:19:40.442Z,72.97
2018-12-12T18:22:09.054Z,73.01
2018-12-12T18:24:37.441Z,73.34
2018-12-12T18:27:05.913Z,74.00
2018-12-12T18:29:34.364Z,74.20
2018-12-12T18:32:02.745Z,74.97
2018-12-12T18:34:31.141Z,74.46
2018-12-12T18:36:59.592Z,73.92
2018-12-12T18:39:27.985Z,74.18
2018-12-12T18:42:04.261Z,74.33
2018-12-12T18:44:47.630Z,73.66
2018-12-12T18:47:16.024Z,73.33
2018-12-12T18:50:01.185Z,73.76
2018-12-12T18:52:29.793Z,73.86
2018-12-12T18:55:04.357Z,73.58
2018-12-12T18:57:34.191Z,73.79
2018-12-12T19:00:02.615Z,74.57
2018-12-12T19:02:30.991Z,74.69
2018-12-12T19:04:59.440Z,73.83
2018-12-12T19:07:58.000Z,73.98
2018-12-12T19:10:54.598Z,74.53
2018-12-12T19:13:22.972Z,76.22
2018-12-12T19:15:51.379Z,75.53
2018-12-12T19:18:20.089Z,75.54
2018-12-12T19:20:48.483Z,75.10
2018-12-12T19:23:46.685Z,75.19
2018-12-12T19:26:43.241Z,75.08
2018-12-12T19:35:18.126Z,74.17
2018-12-12T19:37:52.527Z,74.31
2018-12-12T19:40:27.554Z,74.66
2018-12-12T19:43:02.417Z,73.83
2018-12-12T19:45:34.284Z,73.88
2018-12-12T19:48:02.711Z,74.37
2018-12-12T19:50:31.088Z,74.62
2018-12-12T19:53:00.874Z,74.21
2018-12-12T19:55:35.785Z,74.17
2018-12-12T19:58:04.170Z,74.87
2018-12-12T20:00:33.502Z,74.89
2018-12-12T20:03:08.469Z,74.08
2018-12-12T20:08:49.291Z,74.76
2018-12-12T20:11:17.630Z,73.95
2018-12-12T20:13:47.247Z,74.63
2018-12-12T20:16:18.826Z,74.47
2018-12-12T20:18:47.233Z,74.25
2018-12-12T20:21:30.515Z,74.41
2018-12-12T20:23:58.829Z,75.34
2018-12-12T20:26:50.800Z,75.25
2018-12-12T20:32:18.657Z,75.45
2018-12-12T20:34:53.080Z,74.92
2018-12-12T20:37:27.987Z,75.23
2018-12-12T20:40:03.206Z,75.33
2018-12-12T20:42:38.078Z,74.90
2018-12-12T20:45:12.670Z,74.82
2018-12-12T20:47:47.382Z,73.96
2018-12-12T20:53:01.868Z,74.38
2018-12-12T20:55:36.736Z,74.33
2018-12-12T20:58:12.052Z,74.39
2018-12-12T21:00:48.186Z,75.17
2018-12-12T21:03:27.041Z,74.29
2018-12-12T21:05:55.462Z,74.84
2018-12-12T21:08:23.865Z,75.07
2018-12-12T21:11:05.152Z,75.08
2018-12-12T21:16:52.309Z,75.74
2018-12-12T21:19:20.645Z,75.92
2018-12-12T21:21:55.649Z,76.33
2018-12-12T21:27:29.498Z,76.63
2018-12-12T21:33:04.975Z,78.14
2018-12-12T21:38:55.957Z,78.27
2018-12-12T21:44:28.528Z,77.96
2018-12-12T21:47:02.808Z,78.75
2018-12-12T21:49:31.227Z,78.32
2018-12-12T21:52:25.569Z,77.72
2018-12-12T22:00:11.091Z,78.85
2018-12-12T22:02:39.498Z,79.29
2018-12-12T22:05:08.046Z,79.02
2018-12-12T22:07:36.739Z,79.29
2018-12-12T22:10:05.753Z,78.39
2018-12-12T22:12:34.035Z,80.23
2018-12-12T22:15:02.423Z,78.99
2018-12-12T22:17:30.728Z,79.12
2018-12-12T22:19:59.105Z,79.76
2018-12-12T22:22:27.588Z,79.43
2018-12-12T22:24:55.952Z,80.02
2018-12-12T22:27:24.272Z,79.91
2018-12-12T22:29:52.860Z,78.82
2018-12-12T22:32:21.287Z,79.23
2018-12-12T22:34:49.655Z,78.99
2018-12-12T22:37:18.025Z,78.08
2018-12-12T22:39:46.490Z,77.97
2018-12-12T22:42:14.782Z,77.84
2018-12-12T22:44:43.085Z,77.68
2018-12-12T22:47:11.376Z,77.10
2018-12-12T22:49:39.696Z,77.00
2018-12-12T22:52:08.210Z,76.87
2018-12-12T22:54:36.506Z,76.21
2018-12-12T22:57:04.846Z,77.12
2018-12-12T22:59:33.170Z,76.82
2018-12-12T23:02:01.473Z,76.38
2018-12-12T23:04:29.796Z,75.95
2018-12-12T23:06:58.135Z,75.50
2018-12-12T23:09:26.500Z,75.57
2018-12-12T23:11:54.817Z,75.72
2018-12-12T23:14:23.362Z,75.85
2018-12-12T23:16:51.674Z,76.63
2018-12-12T23:19:19.978Z,75.63
2018-12-12T23:21:48.350Z,74.74
2018-12-12T23:24:16.681Z,75.46
2018-12-12T23:26:45.016Z,74.74
2018-12-12T23:29:13.349Z,74.51
2018-12-12T23:31:41.684Z,75.15
2018-12-12T23:34:09.983Z,74.15
2018-12-12T23:36:38.500Z,74.33
2018-12-12T23:39:07.180Z,74.15
2018-12-12T23:41:35.566Z,73.98
2018-12-12T23:44:03.949Z,74.41
2018-12-12T23:46:32.274Z,73.23
2018-12-12T23:49:00.569Z,74.31
2018-12-12T23:51:29.159Z,72.87
2018-12-12T23:53:57.492Z,73.88
2018-12-12T23:56:26.118Z,74.26
2018-12-12T23:58:54.498Z,74.64
